sensor_id;sensor_type;location;lat;lon;timestamp;temperature;humidity
23143;DHT22;11740;51.168;4.112;2023-05-18T00:02:02;12.10;1.00
23143;DHT22;11740;51.168;4.112;2023-05-18T00:04:32;12.00;1.00
23143;DHT22;11740;51.168;4.112;2023-05-18T00:07:00;12.00;1.00
23143;DHT22;11740;51.168;4.112;2023-05-18T00:09:34;11.90;1.00
23143;DHT22;11740;51.168;4.112;2023-05-18T00:12:02;11.90;1.00
23143;DHT22;11740;51.168;4.112;2023-05-18T00:14:30;11.80;1.00
23143;DHT22;11740;51.168;4.112;2023-05-18T00:16:57;11.80;1.00
23143;DHT22;11740;51.168;4.112;2023-05-18T00:19:27;11.80;1.00
23143;DHT22;11740;51.168;4.112;2023-05-18T00:21:55;11.70;1.00
23143;DHT22;11740;51.168;4.112;2023-05-18T00:24:23;11.60;1.00
23143;DHT22;11740;51.168;4.112;2023-05-18T00:26:50;11.60;1.00
23143;DHT22;11740;51.168;4.112;2023-05-18T00:29:17;11.50;1.00
23143;DHT22;11740;51.168;4.112;2023-05-18T00:31:43;11.40;1.00
23143;DHT22;11740;51.168;4.112;2023-05-18T00:34:12;11.40;1.00
23143;DHT22;11740;51.168;4.112;2023-05-18T00:36:39;11.40;1.00
23143;DHT22;11740;51.168;4.112;2023-05-18T00:39:06;11.30;1.00
23143;DHT22;11740;51.168;4.112;2023-05-18T00:41:37;11.20;1.00
23143;DHT22;11740;51.168;4.112;2023-05-18T00:44:04;11.20;1.00
23143;DHT22;11740;51.168;4.112;2023-05-18T00:46:31;11.10;1.00
23143;DHT22;11740;51.168;4.112;2023-05-18T00:48:58;11.10;1.00
23143;DHT22;11740;51.168;4.112;2023-05-18T00:51:28;11.00;1.00
23143;DHT22;11740;51.168;4.112;2023-05-18T00:53:55;11.00;1.00
23143;DHT22;11740;51.168;4.112;2023-05-18T00:56:22;10.90;1.00
23143;DHT22;11740;51.168;4.112;2023-05-18T00:58:53;10.90;1.00
23143;DHT22;11740;51.168;4.112;2023-05-18T01:01:31;10.80;1.00
23143;DHT22;11740;51.168;4.112;2023-05-18T01:04:02;10.80;1.00
23143;DHT22;11740;51.168;4.112;2023-05-18T01:06:30;10.70;1.00
23143;DHT22;11740;51.168;4.112;2023-05-18T01:09:02;10.60;1.00
23143;DHT22;11740;51.168;4.112;2023-05-18T01:11:32;10.60;1.00
23143;DHT22;11740;51.168;4.112;2023-05-18T01:20:03;10.40;1.00
23143;DHT22;11740;51.168;4.112;2023-05-18T01:28:13;10.30;1.00
23143;DHT22;11740;51.168;4.112;2023-05-18T01:30:42;10.30;1.00
23143;DHT22;11740;51.168;4.112;2023-05-18T01:33:09;10.20;1.00
23143;DHT22;11740;51.168;4.112;2023-05-18T01:35:37;10.10;1.00
23143;DHT22;11740;51.168;4.112;2023-05-18T01:38:07;10.10;1.00
23143;DHT22;11740;51.168;4.112;2023-05-18T01:40:34;10.00;1.00
23143;DHT22;11740;51.168;4.112;2023-05-18T01:43:06;9.90;1.00
23143;DHT22;11740;51.168;4.112;2023-05-18T01:45:39;9.80;1.00
23143;DHT22;11740;51.168;4.112;2023-05-18T01:48:08;9.80;1.00
23143;DHT22;11740;51.168;4.112;2023-05-18T01:50:37;9.80;1.00
23143;DHT22;11740;51.168;4.112;2023-05-18T01:53:24;9.80;1.00
23143;DHT22;11740;51.168;4.112;2023-05-18T01:55:54;9.80;1.00
23143;DHT22;11740;51.168;4.112;2023-05-18T01:58:21;9.70;1.00
23143;DHT22;11740;51.168;4.112;2023-05-18T02:00:48;9.70;1.00
23143;DHT22;11740;51.168;4.112;2023-05-18T02:03:16;9.70;1.00
23143;DHT22;11740;51.168;4.112;2023-05-18T02:05:42;9.60;1.00
23143;DHT22;11740;51.168;4.112;2023-05-18T02:08:09;9.60;1.00
23143;DHT22;11740;51.168;4.112;2023-05-18T02:10:37;9.60;1.00
23143;DHT22;11740;51.168;4.112;2023-05-18T02:13:03;9.50;1.00
23143;DHT22;11740;51.168;4.112;2023-05-18T02:15:30;9.50;1.00
23143;DHT22;11740;51.168;4.112;2023-05-18T02:17:57;9.40;1.00
23143;DHT22;11740;51.168;4.112;2023-05-18T02:20:24;9.30;1.00
23143;DHT22;11740;51.168;4.112;2023-05-18T02:22:53;9.30;1.00
23143;DHT22;11740;51.168;4.112;2023-05-18T02:25:20;9.20;1.00
23143;DHT22;11740;51.168;4.112;2023-05-18T02:27:47;9.10;1.00
23143;DHT22;11740;51.168;4.112;2023-05-18T02:30:14;9.10;1.00
23143;DHT22;11740;51.168;4.112;2023-05-18T02:32:41;9.10;1.00
23143;DHT22;11740;51.168;4.112;2023-05-18T02:35:14;9.00;1.00
23143;DHT22;11740;51.168;4.112;2023-05-18T02:37:42;9.00;1.00
23143;DHT22;11740;51.168;4.112;2023-05-18T02:40:10;8.90;1.00
23143;DHT22;11740;51.168;4.112;2023-05-18T02:42:38;8.90;1.00
23143;DHT22;11740;51.168;4.112;2023-05-18T02:45:05;8.90;1.00
23143;DHT22;11740;51.168;4.112;2023-05-18T02:47:32;8.80;1.00
23143;DHT22;11740;51.168;4.112;2023-05-18T02:49:59;8.70;1.00
23143;DHT22;11740;51.168;4.112;2023-05-18T02:52:26;8.70;1.00
23143;DHT22;11740;51.168;4.112;2023-05-18T02:54:54;8.70;1.00
23143;DHT22;11740;51.168;4.112;2023-05-18T02:57:21;8.70;1.00
23143;DHT22;11740;51.168;4.112;2023-05-18T02:59:48;8.70;1.00
23143;DHT22;11740;51.168;4.112;2023-05-18T03:02:15;8.60;1.00
23143;DHT22;11740;51.168;4.112;2023-05-18T03:04:42;8.60;1.00
23143;DHT22;11740;51.168;4.112;2023-05-18T03:07:09;8.60;1.00
23143;DHT22;11740;51.168;4.112;2023-05-18T03:09:36;8.60;1.00
23143;DHT22;11740;51.168;4.112;2023-05-18T03:12:03;8.60;1.00
23143;DHT22;11740;51.168;4.112;2023-05-18T03:14:30;8.50;1.00
23143;DHT22;11740;51.168;4.112;2023-05-18T03:16:57;8.50;1.00
23143;DHT22;11740;51.168;4.112;2023-05-18T03:19:24;8.50;1.00
23143;DHT22;11740;51.168;4.112;2023-05-18T03:21:52;8.50;1.00
23143;DHT22;11740;51.168;4.112;2023-05-18T03:24:19;8.50;1.00
23143;DHT22;11740;51.168;4.112;2023-05-18T03:26:46;8.50;1.00
23143;DHT22;11740;51.168;4.112;2023-05-18T03:29:13;8.40;1.00
23143;DHT22;11740;51.168;4.112;2023-05-18T03:31:39;8.30;1.00
23143;DHT22;11740;51.168;4.112;2023-05-18T03:34:06;8.30;1.00
23143;DHT22;11740;51.168;4.112;2023-05-18T03:36:33;8.30;1.00
23143;DHT22;11740;51.168;4.112;2023-05-18T03:39:01;8.30;1.00
23143;DHT22;11740;51.168;4.112;2023-05-18T03:41:28;8.30;1.00
23143;DHT22;11740;51.168;4.112;2023-05-18T03:43:55;8.20;1.00
23143;DHT22;11740;51.168;4.112;2023-05-18T03:46:22;8.20;1.00
23143;DHT22;11740;51.168;4.112;2023-05-18T03:48:49;8.20;1.00
23143;DHT22;11740;51.168;4.112;2023-05-18T03:51:16;8.20;1.00
23143;DHT22;11740;51.168;4.112;2023-05-18T03:53:43;8.10;1.00
23143;DHT22;11740;51.168;4.112;2023-05-18T03:56:10;8.10;1.00
23143;DHT22;11740;51.168;4.112;2023-05-18T03:58:38;8.00;1.00
23143;DHT22;11740;51.168;4.112;2023-05-18T04:01:05;8.00;1.00
23143;DHT22;11740;51.168;4.112;2023-05-18T04:03:32;7.90;1.00
23143;DHT22;11740;51.168;4.112;2023-05-18T04:06:00;7.90;1.00
23143;DHT22;11740;51.168;4.112;2023-05-18T04:08:27;7.90;1.00
23143;DHT22;11740;51.168;4.112;2023-05-18T04:10:55;7.90;1.00
23143;DHT22;11740;51.168;4.112;2023-05-18T04:13:22;7.80;1.00
23143;DHT22;11740;51.168;4.112;2023-05-18T04:15:49;7.80;1.00
23143;DHT22;11740;51.168;4.112;2023-05-18T04:18:16;7.80;1.00
23143;DHT22;11740;51.168;4.112;2023-05-18T04:20:43;7.80;1.00
23143;DHT22;11740;51.168;4.112;2023-05-18T04:23:11;7.80;1.00
23143;DHT22;11740;51.168;4.112;2023-05-18T04:25:38;7.80;1.00
23143;DHT22;11740;51.168;4.112;2023-05-18T04:28:06;7.80;1.00
23143;DHT22;11740;51.168;4.112;2023-05-18T04:30:35;7.70;1.00
23143;DHT22;11740;51.168;4.112;2023-05-18T04:33:03;7.70;1.00
23143;DHT22;11740;51.168;4.112;2023-05-18T04:35:32;7.70;1.00
23143;DHT22;11740;51.168;4.112;2023-05-18T04:37:59;7.60;1.00
23143;DHT22;11740;51.168;4.112;2023-05-18T04:40:25;7.70;1.00
23143;DHT22;11740;51.168;4.112;2023-05-18T04:42:52;7.70;1.00
23143;DHT22;11740;51.168;4.112;2023-05-18T04:45:19;7.70;1.00
23143;DHT22;11740;51.168;4.112;2023-05-18T04:47:48;7.70;1.00
23143;DHT22;11740;51.168;4.112;2023-05-18T04:50:19;7.60;1.00
23143;DHT22;11740;51.168;4.112;2023-05-18T04:52:49;7.60;1.00
23143;DHT22;11740;51.168;4.112;2023-05-18T04:55:17;7.60;1.00
23143;DHT22;11740;51.168;4.112;2023-05-18T04:57:51;7.60;1.00
23143;DHT22;11740;51.168;4.112;2023-05-18T05:00:26;7.60;2.80
23143;DHT22;11740;51.168;4.112;2023-05-18T05:02:57;7.60;19.20
23143;DHT22;11740;51.168;4.112;2023-05-18T05:05:24;7.60;33.50
23143;DHT22;11740;51.168;4.112;2023-05-18T05:07:52;7.60;17.20
23143;DHT22;11740;51.168;4.112;2023-05-18T05:10:20;7.60;21.80
23143;DHT22;11740;51.168;4.112;2023-05-18T05:12:50;7.60;21.90
23143;DHT22;11740;51.168;4.112;2023-05-18T05:15:17;7.70;25.50
23143;DHT22;11740;51.168;4.112;2023-05-18T05:17:47;7.60;40.50
23143;DHT22;11740;51.168;4.112;2023-05-18T05:20:15;7.60;29.70
23143;DHT22;11740;51.168;4.112;2023-05-18T05:22:42;7.60;77.50
23143;DHT22;11740;51.168;4.112;2023-05-18T05:25:09;7.50;48.80
23143;DHT22;11740;51.168;4.112;2023-05-18T05:27:36;7.60;57.10
23143;DHT22;11740;51.168;4.112;2023-05-18T05:30:03;7.60;96.20
23143;DHT22;11740;51.168;4.112;2023-05-18T05:32:30;7.50;58.20
23143;DHT22;11740;51.168;4.112;2023-05-18T05:34:57;7.50;42.10
23143;DHT22;11740;51.168;4.112;2023-05-18T05:37:24;7.50;68.30
23143;DHT22;11740;51.168;4.112;2023-05-18T05:39:50;7.50;46.70
23143;DHT22;11740;51.168;4.112;2023-05-18T05:42:17;7.60;42.30
23143;DHT22;11740;51.168;4.112;2023-05-18T05:44:44;7.60;50.60
23143;DHT22;11740;51.168;4.112;2023-05-18T05:47:11;7.60;58.70
23143;DHT22;11740;51.168;4.112;2023-05-18T05:49:38;7.60;42.10
23143;DHT22;11740;51.168;4.112;2023-05-18T05:52:05;7.70;48.70
23143;DHT22;11740;51.168;4.112;2023-05-18T05:54:32;7.70;64.50
23143;DHT22;11740;51.168;4.112;2023-05-18T05:56:58;7.70;73.00
23143;DHT22;11740;51.168;4.112;2023-05-18T05:59:25;7.70;70.70
23143;DHT22;11740;51.168;4.112;2023-05-18T06:01:52;7.70;99.90
23143;DHT22;11740;51.168;4.112;2023-05-18T06:04:19;7.80;99.90
23143;DHT22;11740;51.168;4.112;2023-05-18T06:06:46;7.80;99.90
23143;DHT22;11740;51.168;4.112;2023-05-18T06:09:13;7.90;99.90
23143;DHT22;11740;51.168;4.112;2023-05-18T06:11:41;7.90;99.90
23143;DHT22;11740;51.168;4.112;2023-05-18T06:14:08;7.90;99.90
23143;DHT22;11740;51.168;4.112;2023-05-18T06:16:35;7.90;99.90
23143;DHT22;11740;51.168;4.112;2023-05-18T06:19:01;8.00;99.90
23143;DHT22;11740;51.168;4.112;2023-05-18T06:21:29;8.00;99.90
23143;DHT22;11740;51.168;4.112;2023-05-18T06:23:56;8.00;99.90
23143;DHT22;11740;51.168;4.112;2023-05-18T06:26:23;8.10;99.90
23143;DHT22;11740;51.168;4.112;2023-05-18T06:28:50;8.20;99.90
23143;DHT22;11740;51.168;4.112;2023-05-18T06:31:17;8.20;99.90
23143;DHT22;11740;51.168;4.112;2023-05-18T06:33:44;8.30;99.90
23143;DHT22;11740;51.168;4.112;2023-05-18T06:36:11;8.40;99.90
23143;DHT22;11740;51.168;4.112;2023-05-18T06:38:38;8.40;99.90
23143;DHT22;11740;51.168;4.112;2023-05-18T06:41:04;8.40;99.90
23143;DHT22;11740;51.168;4.112;2023-05-18T06:43:31;8.40;99.90
23143;DHT22;11740;51.168;4.112;2023-05-18T06:45:58;8.50;99.90
23143;DHT22;11740;51.168;4.112;2023-05-18T06:48:25;8.50;99.90
23143;DHT22;11740;51.168;4.112;2023-05-18T06:50:53;8.50;99.90
23143;DHT22;11740;51.168;4.112;2023-05-18T06:53:20;8.60;99.90
23143;DHT22;11740;51.168;4.112;2023-05-18T06:55:48;8.70;99.90
23143;DHT22;11740;51.168;4.112;2023-05-18T06:58:15;8.70;99.90
23143;DHT22;11740;51.168;4.112;2023-05-18T07:00:42;8.70;99.90
23143;DHT22;11740;51.168;4.112;2023-05-18T07:03:09;8.80;99.90
23143;DHT22;11740;51.168;4.112;2023-05-18T07:05:36;8.80;99.90
23143;DHT22;11740;51.168;4.112;2023-05-18T07:08:05;8.90;99.90
23143;DHT22;11740;51.168;4.112;2023-05-18T07:10:32;9.00;99.90
23143;DHT22;11740;51.168;4.112;2023-05-18T07:13:01;9.00;99.90
23143;DHT22;11740;51.168;4.112;2023-05-18T07:15:28;9.00;99.90
23143;DHT22;11740;51.168;4.112;2023-05-18T07:17:55;9.10;99.90
23143;DHT22;11740;51.168;4.112;2023-05-18T07:20:22;9.20;99.90
23143;DHT22;11740;51.168;4.112;2023-05-18T07:22:51;9.20;99.90
23143;DHT22;11740;51.168;4.112;2023-05-18T07:25:21;9.20;99.90
23143;DHT22;11740;51.168;4.112;2023-05-18T07:27:48;9.30;99.90
23143;DHT22;11740;51.168;4.112;2023-05-18T07:30:17;9.30;99.90
23143;DHT22;11740;51.168;4.112;2023-05-18T07:32:44;9.40;99.90
23143;DHT22;11740;51.168;4.112;2023-05-18T07:35:11;9.40;99.90
23143;DHT22;11740;51.168;4.112;2023-05-18T07:37:38;9.40;99.90
23143;DHT22;11740;51.168;4.112;2023-05-18T07:40:05;9.50;99.90
23143;DHT22;11740;51.168;4.112;2023-05-18T07:42:35;9.50;99.90
23143;DHT22;11740;51.168;4.112;2023-05-18T07:45:03;9.60;99.90
23143;DHT22;11740;51.168;4.112;2023-05-18T07:47:30;9.70;99.90
23143;DHT22;11740;51.168;4.112;2023-05-18T07:49:57;9.70;99.90
23143;DHT22;11740;51.168;4.112;2023-05-18T07:52:24;9.80;99.90
23143;DHT22;11740;51.168;4.112;2023-05-18T07:54:51;9.80;99.90
23143;DHT22;11740;51.168;4.112;2023-05-18T07:57:19;9.80;99.90
23143;DHT22;11740;51.168;4.112;2023-05-18T07:59:46;10.00;99.90
23143;DHT22;11740;51.168;4.112;2023-05-18T08:02:13;10.10;99.90
23143;DHT22;11740;51.168;4.112;2023-05-18T08:04:42;10.30;99.90
23143;DHT22;11740;51.168;4.112;2023-05-18T08:07:09;10.40;99.90
23143;DHT22;11740;51.168;4.112;2023-05-18T08:09:36;10.60;99.90
23143;DHT22;11740;51.168;4.112;2023-05-18T08:12:03;10.80;99.90
23143;DHT22;11740;51.168;4.112;2023-05-18T08:14:30;11.00;99.90
23143;DHT22;11740;51.168;4.112;2023-05-18T08:16:57;11.10;99.90
23143;DHT22;11740;51.168;4.112;2023-05-18T08:19:24;11.40;99.90
23143;DHT22;11740;51.168;4.112;2023-05-18T08:21:51;11.50;92.70
23143;DHT22;11740;51.168;4.112;2023-05-18T08:24:18;11.80;85.70
23143;DHT22;11740;51.168;4.112;2023-05-18T08:26:44;12.20;79.00
23143;DHT22;11740;51.168;4.112;2023-05-18T08:29:11;12.40;62.70
23143;DHT22;11740;51.168;4.112;2023-05-18T08:31:39;12.60;58.00
23143;DHT22;11740;51.168;4.112;2023-05-18T08:34:06;12.70;43.00
23143;DHT22;11740;51.168;4.112;2023-05-18T08:36:34;13.00;35.80
23143;DHT22;11740;51.168;4.112;2023-05-18T08:39:01;13.10;37.10
23143;DHT22;11740;51.168;4.112;2023-05-18T08:41:29;13.20;32.30
23143;DHT22;11740;51.168;4.112;2023-05-18T08:43:59;13.50;23.50
23143;DHT22;11740;51.168;4.112;2023-05-18T08:46:41;13.70;22.80
23143;DHT22;11740;51.168;4.112;2023-05-18T08:49:17;13.90;23.80
23143;DHT22;11740;51.168;4.112;2023-05-18T08:51:45;14.20;15.80
23143;DHT22;11740;51.168;4.112;2023-05-18T08:54:18;14.40;11.60
23143;DHT22;11740;51.168;4.112;2023-05-18T08:56:46;14.30;1.00
23143;DHT22;11740;51.168;4.112;2023-05-18T08:59:15;14.20;1.00
23143;DHT22;11740;51.168;4.112;2023-05-18T09:01:44;14.20;1.00
23143;DHT22;11740;51.168;4.112;2023-05-18T09:04:12;14.20;1.00
23143;DHT22;11740;51.168;4.112;2023-05-18T09:06:39;14.30;1.00
23143;DHT22;11740;51.168;4.112;2023-05-18T09:09:06;14.40;1.00
23143;DHT22;11740;51.168;4.112;2023-05-18T09:11:33;14.50;1.00
23143;DHT22;11740;51.168;4.112;2023-05-18T09:14:01;14.40;1.00
23143;DHT22;11740;51.168;4.112;2023-05-18T09:16:28;14.30;1.00
23143;DHT22;11740;51.168;4.112;2023-05-18T09:18:56;14.30;1.00
23143;DHT22;11740;51.168;4.112;2023-05-18T09:21:22;14.10;1.00
23143;DHT22;11740;51.168;4.112;2023-05-18T09:23:49;14.10;1.00
23143;DHT22;11740;51.168;4.112;2023-05-18T09:26:18;14.10;1.00
23143;DHT22;11740;51.168;4.112;2023-05-18T09:28:45;14.10;1.00
23143;DHT22;11740;51.168;4.112;2023-05-18T09:31:18;14.30;1.00
23143;DHT22;11740;51.168;4.112;2023-05-18T09:33:46;14.30;1.00
23143;DHT22;11740;51.168;4.112;2023-05-18T09:36:13;14.50;1.00
23143;DHT22;11740;51.168;4.112;2023-05-18T09:38:41;14.50;1.00
23143;DHT22;11740;51.168;4.112;2023-05-18T09:41:12;14.50;1.00
23143;DHT22;11740;51.168;4.112;2023-05-18T09:43:43;14.70;1.00
23143;DHT22;11740;51.168;4.112;2023-05-18T09:46:11;14.80;1.00
23143;DHT22;11740;51.168;4.112;2023-05-18T09:48:44;14.80;1.00
23143;DHT22;11740;51.168;4.112;2023-05-18T09:51:12;14.80;1.00
23143;DHT22;11740;51.168;4.112;2023-05-18T09:53:46;14.80;1.00
23143;DHT22;11740;51.168;4.112;2023-05-18T09:56:23;14.90;1.00
23143;DHT22;11740;51.168;4.112;2023-05-18T09:58:51;14.90;1.00
23143;DHT22;11740;51.168;4.112;2023-05-18T10:01:18;15.10;1.00
23143;DHT22;11740;51.168;4.112;2023-05-18T10:03:45;15.20;1.00
23143;DHT22;11740;51.168;4.112;2023-05-18T10:06:14;15.30;1.00
23143;DHT22;11740;51.168;4.112;2023-05-18T10:08:45;15.30;1.00
23143;DHT22;11740;51.168;4.112;2023-05-18T10:11:12;15.30;1.00
23143;DHT22;11740;51.168;4.112;2023-05-18T10:13:43;15.40;1.00
23143;DHT22;11740;51.168;4.112;2023-05-18T10:16:12;15.50;1.00
23143;DHT22;11740;51.168;4.112;2023-05-18T10:18:41;15.40;1.00
23143;DHT22;11740;51.168;4.112;2023-05-18T10:21:08;15.40;1.00
23143;DHT22;11740;51.168;4.112;2023-05-18T10:23:35;15.50;1.00
23143;DHT22;11740;51.168;4.112;2023-05-18T10:26:05;15.60;1.00
23143;DHT22;11740;51.168;4.112;2023-05-18T10:28:40;15.70;1.00
23143;DHT22;11740;51.168;4.112;2023-05-18T10:31:08;15.80;1.00
23143;DHT22;11740;51.168;4.112;2023-05-18T10:33:36;15.80;1.00
23143;DHT22;11740;51.168;4.112;2023-05-18T10:36:03;15.90;1.00
23143;DHT22;11740;51.168;4.112;2023-05-18T10:38:31;15.90;1.00
23143;DHT22;11740;51.168;4.112;2023-05-18T10:40:59;16.00;1.00
23143;DHT22;11740;51.168;4.112;2023-05-18T10:43:26;16.20;1.00
23143;DHT22;11740;51.168;4.112;2023-05-18T10:45:54;16.20;1.00
23143;DHT22;11740;51.168;4.112;2023-05-18T10:48:25;16.30;1.00
23143;DHT22;11740;51.168;4.112;2023-05-18T10:50:53;16.30;1.00
23143;DHT22;11740;51.168;4.112;2023-05-18T10:53:23;16.40;1.00
23143;DHT22;11740;51.168;4.112;2023-05-18T10:55:52;16.40;1.00
23143;DHT22;11740;51.168;4.112;2023-05-18T10:58:26;16.40;1.00
23143;DHT22;11740;51.168;4.112;2023-05-18T11:00:57;16.50;1.00
23143;DHT22;11740;51.168;4.112;2023-05-18T11:03:26;16.60;1.00
23143;DHT22;11740;51.168;4.112;2023-05-18T11:06:04;16.70;1.00
23143;DHT22;11740;51.168;4.112;2023-05-18T11:08:33;16.70;1.00
23143;DHT22;11740;51.168;4.112;2023-05-18T11:11:02;16.70;1.00
23143;DHT22;11740;51.168;4.112;2023-05-18T11:13:33;16.90;1.00
23143;DHT22;11740;51.168;4.112;2023-05-18T11:16:01;17.00;1.00
23143;DHT22;11740;51.168;4.112;2023-05-18T11:18:38;17.10;1.00
23143;DHT22;11740;51.168;4.112;2023-05-18T11:26:39;17.40;1.00
23143;DHT22;11740;51.168;4.112;2023-05-18T11:31:57;17.40;1.00
23143;DHT22;11740;51.168;4.112;2023-05-18T11:34:39;17.50;1.00
23143;DHT22;11740;51.168;4.112;2023-05-18T11:37:11;17.60;1.00
23143;DHT22;11740;51.168;4.112;2023-05-18T11:39:52;17.70;1.00
23143;DHT22;11740;51.168;4.112;2023-05-18T11:42:30;17.80;1.00
23143;DHT22;11740;51.168;4.112;2023-05-18T11:45:09;17.80;1.00
23143;DHT22;11740;51.168;4.112;2023-05-18T11:47:37;18.00;1.00
23143;DHT22;11740;51.168;4.112;2023-05-18T11:50:09;18.30;1.00
23143;DHT22;11740;51.168;4.112;2023-05-18T11:52:50;18.50;1.00
23143;DHT22;11740;51.168;4.112;2023-05-18T11:55:18;18.40;1.00
23143;DHT22;11740;51.168;4.112;2023-05-18T11:57:47;18.50;1.00
23143;DHT22;11740;51.168;4.112;2023-05-18T12:00:15;18.60;1.00
23143;DHT22;11740;51.168;4.112;2023-05-18T12:02:43;18.60;1.00
23143;DHT22;11740;51.168;4.112;2023-05-18T12:05:12;18.60;1.00
23143;DHT22;11740;51.168;4.112;2023-05-18T12:07:40;18.50;1.00
23143;DHT22;11740;51.168;4.112;2023-05-18T12:10:08;18.70;1.00
23143;DHT22;11740;51.168;4.112;2023-05-18T12:12:37;19.00;1.00
23143;DHT22;11740;51.168;4.112;2023-05-18T12:15:06;19.00;1.00
23143;DHT22;11740;51.168;4.112;2023-05-18T12:17:51;18.90;1.00
23143;DHT22;11740;51.168;4.112;2023-05-18T12:20:19;19.20;1.00
23143;DHT22;11740;51.168;4.112;2023-05-18T12:22:47;19.30;1.00
23143;DHT22;11740;51.168;4.112;2023-05-18T12:25:15;19.30;1.00
23143;DHT22;11740;51.168;4.112;2023-05-18T12:27:43;19.40;1.00
23143;DHT22;11740;51.168;4.112;2023-05-18T12:30:11;19.50;1.00
23143;DHT22;11740;51.168;4.112;2023-05-18T12:32:44;19.60;1.00
23143;DHT22;11740;51.168;4.112;2023-05-18T12:35:13;19.70;1.00
23143;DHT22;11740;51.168;4.112;2023-05-18T12:37:41;19.80;1.00
23143;DHT22;11740;51.168;4.112;2023-05-18T12:40:14;19.90;1.00
23143;DHT22;11740;51.168;4.112;2023-05-18T12:45:22;20.00;1.00
23143;DHT22;11740;51.168;4.112;2023-05-18T12:47:51;20.20;1.00
23143;DHT22;11740;51.168;4.112;2023-05-18T12:50:21;20.20;1.00
23143;DHT22;11740;51.168;4.112;2023-05-18T12:52:48;20.30;1.00
23143;DHT22;11740;51.168;4.112;2023-05-18T12:55:16;20.50;1.00
23143;DHT22;11740;51.168;4.112;2023-05-18T12:58:03;20.50;1.00
23143;DHT22;11740;51.168;4.112;2023-05-18T13:00:34;20.70;1.00
23143;DHT22;11740;51.168;4.112;2023-05-18T13:03:12;20.80;1.00
23143;DHT22;11740;51.168;4.112;2023-05-18T13:05:42;20.90;1.00
23143;DHT22;11740;51.168;4.112;2023-05-18T13:08:14;21.00;1.00
23143;DHT22;11740;51.168;4.112;2023-05-18T13:10:43;20.90;1.00
23143;DHT22;11740;51.168;4.112;2023-05-18T13:13:13;21.20;1.00
23143;DHT22;11740;51.168;4.112;2023-05-18T13:15:41;21.40;1.00
23143;DHT22;11740;51.168;4.112;2023-05-18T13:18:09;21.40;1.00
23143;DHT22;11740;51.168;4.112;2023-05-18T13:20:48;21.30;1.00
23143;DHT22;11740;51.168;4.112;2023-05-18T13:23:17;21.40;1.00
23143;DHT22;11740;51.168;4.112;2023-05-18T13:25:45;21.50;1.00
23143;DHT22;11740;51.168;4.112;2023-05-18T13:28:13;21.50;1.00
23143;DHT22;11740;51.168;4.112;2023-05-18T13:30:42;21.70;1.00
23143;DHT22;11740;51.168;4.112;2023-05-18T13:33:10;21.80;1.00
23143;DHT22;11740;51.168;4.112;2023-05-18T13:35:38;21.70;1.00
23143;DHT22;11740;51.168;4.112;2023-05-18T13:38:08;22.10;1.00
23143;DHT22;11740;51.168;4.112;2023-05-18T13:40:35;22.10;1.00
23143;DHT22;11740;51.168;4.112;2023-05-18T13:43:03;22.20;1.00
23143;DHT22;11740;51.168;4.112;2023-05-18T13:45:31;22.20;1.00
23143;DHT22;11740;51.168;4.112;2023-05-18T13:48:00;22.40;1.00
23143;DHT22;11740;51.168;4.112;2023-05-18T13:50:29;22.30;1.00
23143;DHT22;11740;51.168;4.112;2023-05-18T13:52:56;22.40;1.00
23143;DHT22;11740;51.168;4.112;2023-05-18T13:55:23;22.60;1.00
23143;DHT22;11740;51.168;4.112;2023-05-18T13:57:50;22.80;1.00
23143;DHT22;11740;51.168;4.112;2023-05-18T14:00:17;22.70;1.00
23143;DHT22;11740;51.168;4.112;2023-05-18T14:02:46;22.90;1.00
23143;DHT22;11740;51.168;4.112;2023-05-18T14:05:13;22.90;1.00
23143;DHT22;11740;51.168;4.112;2023-05-18T14:07:40;23.10;1.00
23143;DHT22;11740;51.168;4.112;2023-05-18T14:10:08;23.50;1.00
23143;DHT22;11740;51.168;4.112;2023-05-18T14:12:37;23.40;1.00
23143;DHT22;11740;51.168;4.112;2023-05-18T14:15:04;23.30;1.00
23143;DHT22;11740;51.168;4.112;2023-05-18T14:17:31;23.50;1.00
23143;DHT22;11740;51.168;4.112;2023-05-18T14:19:58;23.30;1.00
23143;DHT22;11740;51.168;4.112;2023-05-18T14:22:25;23.50;1.00
23143;DHT22;11740;51.168;4.112;2023-05-18T14:24:52;23.70;1.00
23143;DHT22;11740;51.168;4.112;2023-05-18T14:27:19;23.80;1.00
23143;DHT22;11740;51.168;4.112;2023-05-18T14:29:49;23.80;1.00
23143;DHT22;11740;51.168;4.112;2023-05-18T14:32:16;24.10;1.00
23143;DHT22;11740;51.168;4.112;2023-05-18T14:34:46;24.20;1.00
23143;DHT22;11740;51.168;4.112;2023-05-18T14:37:13;24.10;1.00
23143;DHT22;11740;51.168;4.112;2023-05-18T14:39:40;24.30;1.00
23143;DHT22;11740;51.168;4.112;2023-05-18T14:42:07;24.30;1.00
23143;DHT22;11740;51.168;4.112;2023-05-18T14:44:34;24.50;1.00
23143;DHT22;11740;51.168;4.112;2023-05-18T14:47:01;24.40;1.00
23143;DHT22;11740;51.168;4.112;2023-05-18T14:49:28;24.60;1.00
23143;DHT22;11740;51.168;4.112;2023-05-18T14:51:54;24.80;1.00
23143;DHT22;11740;51.168;4.112;2023-05-18T14:54:21;24.80;1.00
23143;DHT22;11740;51.168;4.112;2023-05-18T14:56:48;24.70;1.00
23143;DHT22;11740;51.168;4.112;2023-05-18T14:59:15;24.90;1.00
23143;DHT22;11740;51.168;4.112;2023-05-18T15:01:42;25.30;1.00
23143;DHT22;11740;51.168;4.112;2023-05-18T15:04:09;25.10;1.00
23143;DHT22;11740;51.168;4.112;2023-05-18T15:06:36;25.10;1.00
23143;DHT22;11740;51.168;4.112;2023-05-18T15:09:03;25.10;1.00
23143;DHT22;11740;51.168;4.112;2023-05-18T15:11:31;25.30;1.00
23143;DHT22;11740;51.168;4.112;2023-05-18T15:13:58;25.30;1.00
23143;DHT22;11740;51.168;4.112;2023-05-18T15:16:25;25.50;1.00
23143;DHT22;11740;51.168;4.112;2023-05-18T15:18:52;25.50;1.00
23143;DHT22;11740;51.168;4.112;2023-05-18T15:21:19;25.70;1.00
23143;DHT22;11740;51.168;4.112;2023-05-18T15:23:46;25.80;1.00
23143;DHT22;11740;51.168;4.112;2023-05-18T15:26:13;25.90;1.00
23143;DHT22;11740;51.168;4.112;2023-05-18T15:28:40;26.10;1.00
23143;DHT22;11740;51.168;4.112;2023-05-18T15:31:08;25.80;1.00
23143;DHT22;11740;51.168;4.112;2023-05-18T15:33:36;26.00;1.00
23143;DHT22;11740;51.168;4.112;2023-05-18T15:36:07;25.80;1.00
23143;DHT22;11740;51.168;4.112;2023-05-18T15:38:34;26.10;1.00
23143;DHT22;11740;51.168;4.112;2023-05-18T15:41:01;26.10;1.00
23143;DHT22;11740;51.168;4.112;2023-05-18T15:43:28;26.10;1.00
23143;DHT22;11740;51.168;4.112;2023-05-18T15:45:56;26.40;1.00
23143;DHT22;11740;51.168;4.112;2023-05-18T15:48:23;26.30;1.00
23143;DHT22;11740;51.168;4.112;2023-05-18T15:50:50;26.50;1.00
23143;DHT22;11740;51.168;4.112;2023-05-18T15:53:17;26.40;1.00
23143;DHT22;11740;51.168;4.112;2023-05-18T15:55:44;26.80;1.00
23143;DHT22;11740;51.168;4.112;2023-05-18T15:58:11;26.60;1.00
23143;DHT22;11740;51.168;4.112;2023-05-18T16:00:41;26.80;1.00
23143;DHT22;11740;51.168;4.112;2023-05-18T16:03:08;26.70;1.00
23143;DHT22;11740;51.168;4.112;2023-05-18T16:05:35;26.80;1.00
23143;DHT22;11740;51.168;4.112;2023-05-18T16:08:02;26.90;1.00
23143;DHT22;11740;51.168;4.112;2023-05-18T16:10:29;26.80;1.00
23143;DHT22;11740;51.168;4.112;2023-05-18T16:12:56;26.50;1.00
23143;DHT22;11740;51.168;4.112;2023-05-18T16:15:31;26.40;1.00
23143;DHT22;11740;51.168;4.112;2023-05-18T16:18:01;26.30;1.00